Trumann, AR (72472)

9:25 AM CST on February 21, 2017 (GMT -0600)
Trumann | | Change Station

Elev 289 ft 35.68 °N, 90.54 °W | Updated 13 seconds ago

Overcast
Overcast
59.2 °F
Feels Like 59.2 °F
N
1.8
Wind Variable Wind from ESE
Gusts 4.9 mph

Today
High -- | Low -- °F
--% Chance of Precip.
Yesterday
High -- | Low -- °F
Precip. -- in
Pressure 29.84 in
Visibility 6.0 miles
Clouds Mostly Cloudy 1400 ft
Overcast 1800 ft
Dew Point 59 °F
Humidity 99%
Rainfall 0.45 in
Snow Depth Not available.
6:41 AM 5:50 PM
Waning Crescent, 24% visible
METAR KJBR 211453Z AUTO 06006KT 6SM BR BKN014 OVC018 14/13 A2985 RMK AO2 RAB04E19 SLP105 P0000 60001 T01440128 50010
Pressure 29.84 in
Visibility 6.0 miles
Clouds Mostly Cloudy 1400 ft
Overcast 1800 ft
Dew Point 59 °F
Humidity 99%
Rainfall 0.45 in
Snow Depth Not available.
6:41 AM 5:50 PM
Waning Crescent, 24% visible
METAR KJBR 211453Z AUTO 06006KT 6SM BR BKN014 OVC018 14/13 A2985 RMK AO2 RAB04E19 SLP105 P0000 60001 T01440128 50010

Get Your Daily Forecast Email!

Thanks for signing up!

Be on the lookout for a verification email in your inbox.

You'll start receiving the daily forecast at 8 AM.

×

10-Day Weather Forecast

Almanac

Astronomy

Feb. 21, 2017 Rise Set
Actual Time
Civil Twilight
Nautical Twilight
Astronomical Twilight
Moon
Length of Visible Light
Length of Day
Tomorrow will be .
, % of the Moon is Illuminated

Today's Extremes

State Highs State Lows

Community

WunderPhotos

Upload Photos

1,962,540 photos uploaded!

WunderBlog® & News

Nearby

Air Quality

  Air Quality AQ Index Pollutant
Not available.

Snow Depth

Station Depth Elevation

Earthquake Activity

City Distance Mag. Time & Date
Minimum magnitude displayed is 2.5.

Coastal Water Temperatures

Place Temperature

Stations

Nearby Weather Stations

Station Location Temp. Windchill Dew Point Humidity Wind Precip. Elev Updated Type
                   

Watches & Warnings

There are currently no watches in effect.